Time;durP1;ratioP1;P1;durP2;ratioP2;P2;SDS_P1;SDS_P2;PMS_P1;PMS_P2;Temp;Humidity;BMP_temperature;BMP_pressure;BME280_temperature;BME280_humidity;BME280_pressure;Samples;Min_cycle;Max_cycle;Signal;HPM_P1;HPM_P2
2022/01/06 00:01:47;;;;;;;21.33;3.30;;;5.60;92.50;;;;;;4987384;28;20054;-68
2022/01/06 00:04:13;;;;;;;17.50;2.95;;;5.60;91.60;;;;;;4967347;28;20133;-67
2022/01/06 00:06:41;;;;;;;22.70;2.67;;;5.60;91.50;;;;;;4985109;28;20050;-67
2022/01/06 00:09:09;;;;;;;17.42;2.47;;;5.50;92.50;;;;;;4986049;28;20046;-67
2022/01/06 00:11:35;;;;;;;22.88;2.80;;;5.50;92.70;;;;;;4953178;28;20042;-67
2022/01/06 00:14:12;;;;;;;15.63;2.40;;;5.50;92.90;;;;;;4987272;28;20038;-67
2022/01/06 00:24:44;;;;;;;30.02;3.35;;;5.40;93.90;;;;;;4986679;28;20050;-67
2022/01/06 00:27:10;;;;;;;15.30;2.20;;;5.50;93.20;;;;;;4987098;28;20045;-67
2022/01/06 00:29:36;;;;;;;22.33;2.58;;;5.50;93.60;;;;;;4984548;28;20528;-67
2022/01/06 00:32:02;;;;;;;31.10;2.80;;;5.50;93.60;;;;;;4987068;28;20046;-67
2022/01/06 00:34:28;;;;;;;37.00;3.05;;;5.50;94.00;;;;;;4985144;28;20046;-68
2022/01/06 00:36:54;;;;;;;30.45;2.55;;;5.50;94.00;;;;;;4970440;28;20547;-67
2022/01/06 00:39:23;;;;;;;19.63;2.40;;;5.40;94.40;;;;;;4988546;28;20509;-67
2022/01/06 00:41:48;;;;;;;26.27;2.63;;;5.40;94.60;;;;;;4972160;28;20046;-67
2022/01/06 00:44:14;;;;;;;16.35;2.53;;;5.30;94.70;;;;;;4973003;28;20043;-67
2022/01/06 00:46:40;;;;;;;25.73;2.63;;;5.30;94.30;;;;;;4988565;28;20090;-67
2022/01/06 00:49:06;;;;;;;14.88;2.08;;;5.30;93.90;;;;;;4989872;28;20053;-67
2022/01/06 00:51:32;;;;;;;17.83;2.28;;;5.20;93.00;;;;;;4987369;28;20038;-67
2022/01/06 00:53:58;;;;;;;14.80;2.30;;;5.10;92.90;;;;;;4989576;28;20046;-67
2022/01/06 00:56:23;;;;;;;22.58;2.55;;;5.00;93.10;;;;;;4988664;28;20050;-67
2022/01/06 00:58:49;;;;;;;17.15;2.83;;;4.90;93.20;;;;;;4972672;28;20520;-67
2022/01/06 01:01:15;;;;;;;16.70;1.55;;;4.80;93.20;;;;;;4969606;28;20050;-67
2022/01/06 01:03:41;;;;;;;19.25;1.90;;;4.80;93.40;;;;;;4987451;28;20137;-68
2022/01/06 01:06:06;;;;;;;8.38;1.17;;;4.60;93.10;;;;;;4990155;28;20449;-68
2022/01/06 01:08:34;;;;;;;17.38;1.77;;;4.50;93.50;;;;;;4956815;28;20042;-67
2022/01/06 01:11:00;;;;;;;15.20;1.98;;;4.50;93.80;;;;;;4970660;28;20065;-67
2022/01/06 01:13:31;;;;;;;14.63;1.90;;;4.30;93.80;;;;;;4987747;28;20057;-67
2022/01/06 01:16:05;;;;;;;15.05;2.40;;;4.20;94.30;;;;;;4961939;28;20553;-67
2022/01/06 01:18:31;;;;;;;9.38;1.30;;;4.00;94.40;;;;;;4971014;28;20038;-67
2022/01/06 01:20:56;;;;;;;23.42;1.67;;;3.90;94.70;;;;;;4974116;28;20109;-67
2022/01/06 01:23:24;;;;;;;16.45;1.63;;;3.80;95.10;;;;;;4989130;28;20072;-67
2022/01/06 01:25:50;;;;;;;16.40;1.33;;;3.70;95.40;;;;;;4970327;28;20043;-67
2022/01/06 01:28:17;;;;;;;10.00;1.20;;;3.60;96.00;;;;;;4971678;28;20109;-67
2022/01/06 01:33:46;;;;;;;12.43;1.10;;;3.40;95.60;;;;;;4954163;28;20046;-68
2022/01/06 01:36:12;;;;;;;18.08;1.67;;;3.30;95.70;;;;;;4968001;28;20054;-68
2022/01/06 01:38:39;;;;;;;11.50;1.52;;;3.20;96.00;;;;;;4987410;28;20043;-67
2022/01/06 01:41:05;;;;;;;19.98;1.95;;;3.10;96.40;;;;;;4989001;28;20429;-67
2022/01/06 01:43:31;;;;;;;18.33;2.20;;;3.00;96.50;;;;;;4985698;28;20218;-67
2022/01/06 01:45:58;;;;;;;9.13;1.33;;;2.90;96.70;;;;;;4989402;28;20515;-68
2022/01/06 01:48:33;;;;;;;24.00;1.23;;;2.80;96.80;;;;;;4988242;28;20055;-67
2022/01/06 01:50:59;;;;;;;7.35;1.25;;;2.50;96.40;;;;;;4970233;28;20047;-68
2022/01/06 01:53:26;;;;;;;12.27;1.55;;;2.30;97.00;;;;;;4970319;28;20568;-67
2022/01/06 01:55:52;;;;;;;13.75;1.40;;;2.20;97.30;;;;;;4987311;28;20455;-67
2022/01/06 01:58:20;;;;;;;10.30;1.42;;;2.20;98.10;;;;;;4988237;28;20042;-67
2022/01/06 02:00:46;;;;;;;8.65;1.08;;;2.20;98.80;;;;;;4986501;28;20053;-67
2022/01/06 02:03:11;;;;;;;14.90;1.30;;;2.10;98.90;;;;;;4988980;28;20046;-68
2022/01/06 02:05:37;;;;;;;9.95;1.33;;;2.10;99.10;;;;;;4968532;28;20556;-67
2022/01/06 02:08:08;;;;;;;12.40;1.42;;;2.10;99.40;;;;;;4962522;28;20126;-67
2022/01/06 02:10:33;;;;;;;12.50;2.13;;;2.10;99.70;;;;;;4965792;28;20046;-67
2022/01/06 02:13:01;;;;;;;11.27;1.17;;;2.10;99.90;;;;;;4985450;28;20493;-67
2022/01/06 02:15:28;;;;;;;8.55;0.93;;;2.10;99.90;;;;;;4987912;28;20392;-67
2022/01/06 02:17:54;;;;;;;8.52;0.95;;;2.10;99.90;;;;;;4956320;28;20110;-67
2022/01/06 02:20:21;;;;;;;15.90;1.70;;;2.10;99.80;;;;;;4979150;28;20535;-67
2022/01/06 02:22:48;;;;;;;13.43;1.90;;;2.10;99.90;;;;;;4986052;28;20065;-66
2022/01/06 02:25:18;;;;;;;13.77;1.98;;;2.10;99.90;;;;;;4987088;28;20489;-66
2022/01/06 02:27:47;;;;;;;19.13;1.98;;;2.30;99.90;;;;;;4986645;28;20116;-66
2022/01/06 02:30:13;;;;;;;5.78;1.10;;;2.50;99.90;;;;;;4986134;28;20141;-66
2022/01/06 02:32:39;;;;;;;18.05;2.15;;;2.70;99.90;;;;;;4986947;28;20050;-67
2022/01/06 02:35:08;;;;;;;8.85;1.38;;;2.90;99.90;;;;;;4981698;28;20432;-67
2022/01/06 02:37:34;;;;;;;12.77;1.95;;;2.90;99.90;;;;;;4970028;28;20051;-67
2022/01/06 02:40:01;;;;;;;11.82;1.50;;;3.00;99.90;;;;;;4969251;28;20046;-67
2022/01/06 02:42:28;;;;;;;6.85;1.33;;;2.90;99.90;;;;;;4986937;28;20447;-66
2022/01/06 02:44:56;;;;;;;9.38;1.23;;;2.90;99.90;;;;;;4986414;28;20078;-67
2022/01/06 02:47:21;;;;;;;11.82;1.10;;;2.80;99.90;;;;;;4968507;28;20117;-66
2022/01/06 02:49:47;;;;;;;9.80;1.50;;;2.80;99.90;;;;;;4984485;28;20042;-66
2022/01/06 02:52:13;;;;;;;11.45;1.25;;;2.70;99.90;;;;;;4981127;28;20070;-67
2022/01/06 02:54:40;;;;;;;16.40;1.35;;;2.60;99.90;;;;;;4986773;28;20030;-66
2022/01/06 02:57:05;;;;;;;10.82;1.20;;;2.50;99.90;;;;;;4986244;28;20046;-67
2022/01/06 02:59:31;;;;;;;7.82;1.25;;;2.40;99.90;;;;;;4994453;28;20042;-67
2022/01/06 03:01:57;;;;;;;7.88;1.17;;;2.30;99.90;;;;;;4982272;28;20099;-67
2022/01/06 03:04:23;;;;;;;11.13;1.95;;;2.20;99.90;;;;;;4992273;28;20037;-67
2022/01/06 03:06:50;;;;;;;10.95;1.60;;;2.10;99.90;;;;;;4990541;28;20043;-67
2022/01/06 03:09:25;;;;;;;8.48;1.17;;;2.00;99.90;;;;;;4993628;28;20098;-67
2022/01/06 03:11:53;;;;;;;6.70;1.05;;;1.90;99.90;;;;;;4967027;28;20435;-67
2022/01/06 03:14:20;;;;;;;7.53;1.25;;;1.80;99.90;;;;;;4983237;28;20046;-67
2022/01/06 03:16:47;;;;;;;11.65;0.98;;;1.70;99.90;;;;;;4987428;28;20117;-66
2022/01/06 03:19:13;;;;;;;6.15;1.02;;;1.60;99.90;;;;;;4986862;28;20050;-67
2022/01/06 03:21:39;;;;;;;10.25;1.25;;;1.50;99.90;;;;;;4986647;28;20042;-67
2022/01/06 03:24:05;;;;;;;11.02;1.25;;;1.50;99.90;;;;;;4986588;28;20443;-67
2022/01/06 03:26:31;;;;;;;7.53;0.90;;;1.40;99.90;;;;;;4980720;28;20053;-67
2022/01/06 03:28:56;;;;;;;5.20;1.00;;;1.30;99.90;;;;;;4987253;28;20042;-67
2022/01/06 03:31:22;;;;;;;13.00;1.38;;;1.20;99.90;;;;;;4951912;28;20346;-67
2022/01/06 03:33:48;;;;;;;9.45;1.27;;;1.20;99.90;;;;;;4960103;28;20050;-67
2022/01/06 03:36:14;;;;;;;9.25;0.98;;;1.20;99.90;;;;;;4985697;28;20121;-67
2022/01/06 03:38:39;;;;;;;7.55;1.38;;;1.20;99.90;;;;;;4987109;28;20078;-67
2022/01/06 03:41:05;;;;;;;6.93;1.10;;;1.20;99.90;;;;;;4969738;28;20133;-67
2022/01/06 03:43:31;;;;;;;7.55;1.20;;;1.20;99.90;;;;;;4986409;28;20470;-67
2022/01/06 03:45:57;;;;;;;10.10;1.38;;;1.20;99.90;;;;;;4968965;28;20047;-67
2022/01/06 03:48:23;;;;;;;8.73;1.10;;;1.20;99.90;;;;;;4950840;28;20035;-67
2022/01/06 03:50:48;;;;;;;6.20;1.13;;;1.10;99.90;;;;;;4944179;28;20042;-67
2022/01/06 03:53:14;;;;;;;8.50;1.23;;;1.10;99.90;;;;;;4985971;28;20480;-67
2022/01/06 03:55:40;;;;;;;10.98;1.15;;;1.10;99.90;;;;;;4986487;28;20039;-67
2022/01/06 03:58:06;;;;;;;15.27;1.65;;;1.10;99.90;;;;;;4953175;28;20038;-67
2022/01/06 04:00:31;;;;;;;10.43;1.52;;;1.10;99.90;;;;;;4963524;28;20541;-67
2022/01/06 04:02:57;;;;;;;11.50;1.58;;;1.10;99.90;;;;;;4984163;28;20042;-67
2022/01/06 04:05:23;;;;;;;16.88;1.65;;;1.10;99.90;;;;;;4984871;28;20435;-67
2022/01/06 04:07:49;;;;;;;10.23;1.45;;;1.10;99.90;;;;;;4985938;28;20486;-67
2022/01/06 04:10:14;;;;;;;9.88;1.63;;;1.20;99.90;;;;;;4985705;28;20046;-67
2022/01/06 04:12:40;;;;;;;12.00;1.48;;;1.20;99.90;;;;;;4970644;28;20113;-67
2022/01/06 04:15:10;;;;;;;5.75;1.00;;;1.10;99.90;;;;;;4978401;28;20129;-67
2022/01/06 04:17:36;;;;;;;11.85;2.05;;;1.10;99.90;;;;;;4988365;28;20051;-67
2022/01/06 04:20:03;;;;;;;13.30;1.25;;;1.00;99.90;;;;;;4986273;28;20038;-67
2022/01/06 04:22:29;;;;;;;9.60;1.52;;;1.00;99.90;;;;;;4984484;28;20077;-67
2022/01/06 04:24:55;;;;;;;10.13;1.42;;;0.90;99.90;;;;;;4990030;28;20051;-67
2022/01/06 04:27:21;;;;;;;15.98;1.55;;;0.80;99.90;;;;;;4971901;28;20102;-67
2022/01/06 04:29:46;;;;;;;9.40;1.20;;;0.80;99.90;;;;;;4988444;28;20041;-67
2022/01/06 04:32:12;;;;;;;13.35;1.35;;;0.60;99.90;;;;;;4964003;28;20065;-67
2022/01/06 04:34:38;;;;;;;8.23;1.20;;;0.70;99.90;;;;;;4990834;28;20476;-67
2022/01/06 04:37:04;;;;;;;11.35;1.45;;;0.70;99.90;;;;;;4988623;28;20153;-67
2022/01/06 04:39:29;;;;;;;8.75;1.35;;;0.70;99.90;;;;;;4989152;28;20090;-67
2022/01/06 04:41:55;;;;;;;13.52;1.50;;;0.70;99.90;;;;;;4985148;28;20053;-67
2022/01/06 04:44:21;;;;;;;11.02;1.85;;;0.70;99.90;;;;;;4984620;28;20133;-67
2022/01/06 04:46:47;;;;;;;12.82;1.20;;;0.70;99.90;;;;;;4989471;28;20389;-67
2022/01/06 04:49:13;;;;;;;10.38;1.25;;;0.70;99.90;;;;;;4970096;28;20042;-66
2022/01/06 04:51:39;;;;;;;16.90;1.85;;;0.70;99.90;;;;;;4971732;28;20548;-67
2022/01/06 04:54:05;;;;;;;13.85;2.03;;;0.70;99.90;;;;;;4987373;28;20049;-67
2022/01/06 04:56:36;;;;;;;18.48;2.22;;;0.70;99.90;;;;;;4988394;28;20037;-67
2022/01/06 04:59:06;;;;;;;5.93;1.30;;;0.80;99.90;;;;;;4987104;28;20118;-67
2022/01/06 05:01:32;;;;;;;7.43;1.92;;;0.80;99.90;;;;;;4987522;28;20734;-67
2022/01/06 05:03:57;;;;;;;21.90;3.65;;;0.70;99.90;;;;;;4984095;28;20041;-67
2022/01/06 05:06:25;;;;;;;20.88;3.35;;;0.70;99.90;;;;;;4987976;28;20042;-67
2022/01/06 05:08:51;;;;;;;20.05;3.42;;;0.80;99.90;;;;;;4973107;28;20050;-67
2022/01/06 05:11:16;;;;;;;19.98;2.95;;;0.80;99.90;;;;;;4988870;28;20042;-67
2022/01/06 05:13:42;;;;;;;17.17;3.17;;;0.80;99.90;;;;;;4953957;28;20039;-67
2022/01/06 05:16:08;;;;;;;17.42;2.90;;;0.80;99.90;;;;;;4969710;28;20484;-67
2022/01/06 05:18:35;;;;;;;11.57;2.40;;;0.80;99.90;;;;;;4971155;28;20046;-67
2022/01/06 05:21:01;;;;;;;15.15;2.00;;;0.70;99.90;;;;;;4971562;28;20141;-67
2022/01/06 05:23:27;;;;;;;12.60;1.90;;;0.70;99.90;;;;;;4987664;28;20060;-67
2022/01/06 05:25:54;;;;;;;28.17;2.85;;;0.60;99.90;;;;;;4988982;28;20113;-67
2022/01/06 05:28:21;;;;;;;32.60;3.63;;;0.60;99.90;;;;;;4970977;28;20038;-67
2022/01/06 05:30:48;;;;;;;21.77;2.88;;;0.80;99.90;;;;;;4988774;28;20061;-67
2022/01/06 05:33:14;;;;;;;29.83;3.83;;;1.10;99.90;;;;;;4989011;28;20043;-67
2022/01/06 05:35:39;;;;;;;26.95;3.85;;;1.40;99.90;;;;;;4975217;28;20420;-67
2022/01/06 05:38:05;;;;;;;29.35;3.10;;;2.00;99.90;;;;;;4988939;28;20126;-67
2022/01/06 05:40:31;;;;;;;19.58;2.75;;;2.50;99.90;;;;;;4961503;28;20125;-67
2022/01/06 05:42:57;;;;;;;16.13;2.20;;;2.70;99.90;;;;;;4984276;28;20046;-67
2022/01/06 05:45:24;;;;;;;23.55;2.55;;;2.90;99.00;;;;;;4987152;28;20057;-67
2022/01/06 05:47:50;;;;;;;18.85;2.30;;;2.90;98.50;;;;;;4988759;28;20127;-67
2022/01/06 05:50:16;;;;;;;27.92;3.00;;;2.80;98.40;;;;;;4974432;28;20137;-66
2022/01/06 05:52:42;;;;;;;16.50;2.13;;;2.80;97.90;;;;;;4989033;28;20043;-67
2022/01/06 05:55:08;;;;;;;18.10;2.28;;;2.80;97.90;;;;;;4970900;28;20484;-67
2022/01/06 05:57:34;;;;;;;29.98;2.75;;;2.70;97.90;;;;;;4987925;28;20038;-67
2022/01/06 06:00:00;;;;;;;21.05;2.13;;;2.70;98.20;;;;;;4988588;28;20049;-67
2022/01/06 06:02:25;;;;;;;20.70;2.55;;;2.50;98.40;;;;;;4962003;28;20051;-67
2022/01/06 06:04:52;;;;;;;14.23;1.92;;;2.40;98.50;;;;;;4964922;28;20046;-67
2022/01/06 06:07:19;;;;;;;18.80;1.88;;;2.20;98.70;;;;;;4981517;28;20396;-67
2022/01/06 06:09:46;;;;;;;19.70;1.65;;;2.10;99.10;;;;;;4979758;28;20141;-67
2022/01/06 06:12:13;;;;;;;21.40;2.20;;;2.10;99.40;;;;;;4969973;28;20508;-67
2022/01/06 06:14:38;;;;;;;15.77;2.25;;;1.90;99.50;;;;;;4980325;28;20058;-67
2022/01/06 06:17:04;;;;;;;17.17;2.10;;;1.90;99.90;;;;;;4980179;28;20034;-67
2022/01/06 06:19:30;;;;;;;19.40;2.28;;;1.80;99.90;;;;;;4986765;28;20113;-67
2022/01/06 06:21:56;;;;;;;15.15;1.83;;;1.70;99.70;;;;;;4976977;28;20105;-67
2022/01/06 06:24:23;;;;;;;17.95;2.15;;;1.60;99.90;;;;;;4983380;28;20516;-67
2022/01/06 06:26:50;;;;;;;10.80;2.17;;;1.60;99.90;;;;;;4988053;28;20619;-67
2022/01/06 06:29:17;;;;;;;13.43;1.63;;;1.50;99.90;;;;;;4953651;28;20066;-67
2022/01/06 06:31:43;;;;;;;22.17;1.92;;;1.50;99.90;;;;;;4946002;28;20133;-67
2022/01/06 06:34:10;;;;;;;9.85;1.75;;;1.50;99.90;;;;;;4961555;28;20078;-67
2022/01/06 06:36:35;;;;;;;11.90;1.65;;;1.40;99.90;;;;;;4967286;28;20133;-67
2022/01/06 06:39:01;;;;;;;25.50;2.65;;;1.30;99.90;;;;;;4950715;28;20130;-67
2022/01/06 06:41:27;;;;;;;21.17;2.33;;;1.20;99.90;;;;;;4964445;28;20043;-67
2022/01/06 06:43:54;;;;;;;16.40;2.67;;;1.10;99.90;;;;;;4967563;28;20054;-67
2022/01/06 06:46:20;;;;;;;24.45;3.72;;;1.00;99.90;;;;;;4966678;28;20055;-67
2022/01/06 06:48:46;;;;;;;19.45;3.83;;;1.00;99.90;;;;;;4967712;28;20552;-67
2022/01/06 06:51:13;;;;;;;24.10;3.38;;;1.10;99.90;;;;;;4968093;28;20055;-67
2022/01/06 06:53:40;;;;;;;24.23;2.75;;;1.10;99.90;;;;;;4967071;28;20042;-67
2022/01/06 06:56:06;;;;;;;15.52;2.65;;;1.10;99.90;;;;;;4966873;28;20382;-67
2022/01/06 06:58:31;;;;;;;18.65;2.58;;;1.20;99.90;;;;;;4929904;29;20161;-67
2022/01/06 07:00:57;;;;;;;19.65;2.85;;;1.20;99.90;;;;;;4949586;28;20039;-67
2022/01/06 07:03:23;;;;;;;20.58;2.78;;;1.20;99.90;;;;;;4966976;28;20046;-67
2022/01/06 07:05:52;;;;;;;26.73;2.72;;;1.20;99.90;;;;;;4951861;28;20042;-67
2022/01/06 07:08:18;;;;;;;14.05;2.10;;;1.30;99.90;;;;;;4964877;28;20035;-67
2022/01/06 07:10:45;;;;;;;19.10;2.08;;;1.30;99.90;;;;;;4965663;28;20125;-67
2022/01/06 07:13:16;;;;;;;22.98;2.75;;;1.30;99.90;;;;;;4966046;28;20047;-67
2022/01/06 07:15:43;;;;;;;15.23;1.90;;;1.30;99.90;;;;;;4959881;28;20046;-67
2022/01/06 07:18:08;;;;;;;28.05;2.33;;;1.30;99.90;;;;;;4965145;28;20090;-67
2022/01/06 07:20:34;;;;;;;22.40;2.65;;;1.20;99.90;;;;;;4933070;28;20047;-67
2022/01/06 07:23:00;;;;;;;23.67;2.92;;;1.10;99.90;;;;;;4962769;28;20043;-67
2022/01/06 07:25:26;;;;;;;29.30;2.88;;;1.00;99.90;;;;;;4964677;28;20496;-67
2022/01/06 07:27:51;;;;;;;18.05;2.65;;;0.90;99.90;;;;;;4944512;28;20047;-67
2022/01/06 07:30:17;;;;;;;20.77;2.42;;;0.80;99.90;;;;;;4964402;28;20113;-67
2022/01/06 07:32:48;;;;;;;15.15;2.28;;;0.70;99.90;;;;;;4990912;28;20501;-67
2022/01/06 07:35:15;;;;;;;19.08;2.70;;;0.60;99.90;;;;;;4994493;28;20133;-67
2022/01/06 07:37:41;;;;;;;22.45;4.13;;;0.70;99.90;;;;;;4979206;28;20046;-67
2022/01/06 07:40:09;;;;;;;29.83;3.17;;;0.60;99.90;;;;;;4996190;28;20055;-67
2022/01/06 07:42:36;;;;;;;22.00;2.83;;;0.60;99.90;;;;;;4988107;28;20049;-66
2022/01/06 07:45:03;;;;;;;23.63;3.53;;;0.70;99.90;;;;;;4983530;28;20046;-66
2022/01/06 07:47:32;;;;;;;34.20;3.63;;;0.90;99.90;;;;;;4941251;28;20042;-67
2022/01/06 07:49:59;;;;;;;28.58;3.53;;;0.90;99.90;;;;;;5001155;28;20041;-67
2022/01/06 07:52:25;;;;;;;23.20;2.53;;;1.00;99.90;;;;;;5007013;28;20714;-67
2022/01/06 07:54:51;;;;;;;21.92;3.10;;;0.90;99.90;;;;;;5005450;28;20368;-67
2022/01/06 07:57:17;;;;;;;37.47;2.60;;;0.90;99.90;;;;;;4992374;28;20480;-67
2022/01/06 07:59:43;;;;;;;30.55;3.55;;;0.90;99.90;;;;;;4988534;28;20064;-67
2022/01/06 08:02:09;;;;;;;23.27;2.92;;;0.90;99.90;;;;;;4989968;28;20125;-67
2022/01/06 08:04:35;;;;;;;22.75;3.15;;;0.90;99.90;;;;;;4997619;28;20070;-67
2022/01/06 08:07:02;;;;;;;26.83;2.88;;;0.90;99.90;;;;;;4991833;28;20042;-67
2022/01/06 08:09:28;;;;;;;31.17;3.13;;;1.00;99.90;;;;;;4953682;28;20038;-67
2022/01/06 08:11:54;;;;;;;29.90;3.03;;;1.00;99.90;;;;;;4983786;28;20038;-67
2022/01/06 08:14:20;;;;;;;20.58;2.38;;;1.00;99.90;;;;;;4956331;28;20057;-67
2022/01/06 08:16:46;;;;;;;29.80;2.67;;;1.00;99.90;;;;;;4988668;28;20047;-67
2022/01/06 08:19:12;;;;;;;34.60;3.05;;;1.10;99.90;;;;;;4994394;28;20049;-67
2022/01/06 08:21:37;;;;;;;22.30;2.58;;;1.20;99.90;;;;;;4990001;28;20121;-67
2022/01/06 08:24:04;;;;;;;30.83;2.75;;;1.20;99.90;;;;;;4993001;28;20068;-67
2022/01/06 08:26:30;;;;;;;30.85;2.95;;;1.20;99.90;;;;;;4988457;28;20030;-67
2022/01/06 08:28:57;;;;;;;26.42;2.65;;;1.30;99.90;;;;;;4993354;28;20117;-67
2022/01/06 08:31:22;;;;;;;26.55;2.55;;;1.20;99.90;;;;;;4992452;28;20129;-67
2022/01/06 08:33:49;;;;;;;34.15;3.95;;;1.20;99.90;;;;;;4971281;28;20141;-67
2022/01/06 08:36:15;;;;;;;26.90;2.83;;;1.10;99.90;;;;;;4993437;28;20556;-67
2022/01/06 08:38:41;;;;;;;28.35;3.05;;;1.10;99.90;;;;;;4993611;28;20591;-67
2022/01/06 08:41:08;;;;;;;22.88;3.42;;;1.10;99.90;;;;;;4993473;28;20223;-67
2022/01/06 08:43:34;;;;;;;34.50;3.72;;;1.10;99.90;;;;;;4990212;28;20046;-67
2022/01/06 08:46:00;;;;;;;36.42;3.55;;;1.10;99.90;;;;;;4947421;28;20038;-67
2022/01/06 08:48:27;;;;;;;30.50;3.40;;;1.20;99.90;;;;;;4992976;28;20484;-67
2022/01/06 08:50:53;;;;;;;26.13;2.78;;;1.30;99.90;;;;;;4994719;28;20038;-67
2022/01/06 08:53:21;;;;;;;27.58;2.92;;;1.30;99.90;;;;;;4997403;28;20096;-67
2022/01/06 08:55:47;;;;;;;31.75;3.13;;;1.40;99.70;;;;;;4979629;28;20043;-67
2022/01/06 08:58:14;;;;;;;34.00;3.30;;;1.60;99.30;;;;;;4997493;28;20436;-66
2022/01/06 09:00:40;;;;;;;38.15;3.30;;;1.70;99.10;;;;;;4985421;28;20059;-66
2022/01/06 09:03:09;;;;;;;32.83;3.90;;;1.70;98.90;;;;;;4951491;28;20129;-67
2022/01/06 09:05:35;;;;;;;30.30;3.40;;;1.80;98.90;;;;;;4988735;28;20038;-66
2022/01/06 09:08:02;;;;;;;33.80;3.45;;;1.80;98.90;;;;;;4987816;28;20050;-66
2022/01/06 09:10:33;;;;;;;29.13;3.90;;;1.90;98.80;;;;;;4971814;28;20279;-66
2022/01/06 09:13:02;;;;;;;32.10;3.70;;;1.90;98.60;;;;;;4987861;28;20050;-66
2022/01/06 09:15:29;;;;;;;39.22;3.58;;;2.00;98.50;;;;;;4986166;28;20064;-67
2022/01/06 09:17:56;;;;;;;26.38;3.38;;;2.10;98.00;;;;;;4979128;28;20038;-66
2022/01/06 09:20:22;;;;;;;22.90;3.63;;;2.20;97.50;;;;;;4967901;28;20030;-66
2022/01/06 09:22:48;;;;;;;11.75;2.72;;;2.30;96.80;;;;;;4971361;28;20042;-65
2022/01/06 09:25:15;;;;;;;24.38;4.47;;;2.30;96.70;;;;;;4983431;28;20045;-66
2022/01/06 09:27:42;;;;;;;31.45;4.05;;;2.30;96.80;;;;;;4972013;28;20046;-66
2022/01/06 09:30:09;;;;;;;23.17;3.33;;;2.40;97.00;;;;;;4993104;28;20046;-66
2022/01/06 09:32:35;;;;;;;31.73;3.47;;;2.40;96.90;;;;;;4991793;28;20105;-66
2022/01/06 09:35:07;;;;;;;22.95;2.90;;;2.40;97.00;;;;;;4999986;28;20038;-66
2022/01/06 09:37:33;;;;;;;32.05;3.55;;;2.40;96.80;;;;;;4954262;28;20047;-66
2022/01/06 09:39:59;;;;;;;30.25;3.40;;;2.40;96.90;;;;;;5003107;28;20046;-66
2022/01/06 09:42:25;;;;;;;27.20;3.80;;;2.40;96.40;;;;;;4984941;28;20405;-66
2022/01/06 09:44:51;;;;;;;34.35;3.45;;;2.40;96.30;;;;;;5002847;28;20045;-66
2022/01/06 09:47:18;;;;;;;17.83;2.67;;;2.40;96.50;;;;;;5003896;28;20511;-66
2022/01/06 09:49:44;;;;;;;26.27;3.10;;;2.40;96.30;;;;;;4993219;28;20121;-66
2022/01/06 09:52:11;;;;;;;24.83;3.92;;;2.50;96.20;;;;;;4987757;28;20456;-66
2022/01/06 09:54:39;;;;;;;24.25;2.80;;;2.50;96.30;;;;;;4967512;28;20125;-66
2022/01/06 09:57:05;;;;;;;34.38;3.65;;;2.50;96.30;;;;;;4969927;28;20042;-66
2022/01/06 09:59:32;;;;;;;22.83;3.10;;;2.50;96.30;;;;;;4968618;28;20456;-66
2022/01/06 10:02:00;;;;;;;20.65;3.10;;;2.60;96.60;;;;;;4990083;28;20412;-66
2022/01/06 10:04:28;;;;;;;37.35;3.22;;;2.50;96.80;;;;;;4948564;28;20476;-66
2022/01/06 10:06:58;;;;;;;23.20;3.75;;;2.60;97.00;;;;;;4990343;28;20101;-66
2022/01/06 10:09:25;;;;;;;20.58;3.05;;;2.60;97.10;;;;;;4985653;28;20052;-66
2022/01/06 10:11:56;;;;;;;24.48;2.95;;;2.60;97.20;;;;;;4988205;28;20054;-66
2022/01/06 10:14:30;;;;;;;30.30;2.67;;;2.70;97.10;;;;;;4988015;28;20488;-67
2022/01/06 10:16:57;;;;;;;28.45;3.63;;;2.80;97.30;;;;;;4987344;28;20481;-66
2022/01/06 10:19:25;;;;;;;22.75;3.22;;;2.90;97.20;;;;;;4977192;28;20208;-66
2022/01/06 10:21:57;;;;;;;24.45;3.00;;;3.00;97.10;;;;;;4979070;28;20039;-66
2022/01/06 10:24:25;;;;;;;19.05;2.40;;;3.00;96.90;;;;;;4988973;28;20069;-67
2022/01/06 10:26:51;;;;;;;25.65;3.15;;;3.20;96.70;;;;;;4987685;28;20397;-64
2022/01/06 10:29:18;;;;;;;18.73;3.13;;;3.20;96.50;;;;;;4986157;28;20053;-64
2022/01/06 10:31:44;;;;;;;27.65;3.15;;;3.30;96.60;;;;;;4990729;28;20371;-65
2022/01/06 10:34:10;;;;;;;15.13;2.78;;;3.30;96.30;;;;;;4993584;28;20317;-64
2022/01/06 10:36:36;;;;;;;21.98;3.78;;;3.40;96.40;;;;;;4985305;28;20034;-68
2022/01/06 10:39:06;;;;;;;20.58;2.60;;;3.50;96.20;;;;;;4991259;28;20054;-65
2022/01/06 10:41:32;;;;;;;22.20;3.30;;;3.60;96.10;;;;;;4972364;28;20034;-62
2022/01/06 10:44:00;;;;;;;11.25;2.22;;;3.60;96.00;;;;;;4991130;28;20034;-63
2022/01/06 10:46:35;;;;;;;15.70;3.58;;;3.70;95.50;;;;;;4990431;28;20041;-64
2022/01/06 10:49:06;;;;;;;19.85;2.60;;;3.70;95.30;;;;;;4993310;28;20053;-63
2022/01/06 10:51:53;;;;;;;16.90;2.80;;;3.80;95.30;;;;;;4981814;28;20038;-63
2022/01/06 10:54:23;;;;;;;21.85;3.35;;;3.80;95.30;;;;;;4983720;28;20046;-63
2022/01/06 10:57:09;;;;;;;17.40;2.10;;;3.90;95.60;;;;;;4986065;28;20049;-63
2022/01/06 10:59:36;;;;;;;20.63;2.35;;;4.10;95.30;;;;;;4951403;28;20203;-63
2022/01/06 11:02:03;;;;;;;20.05;2.47;;;4.10;95.20;;;;;;4985177;28;20049;-63
2022/01/06 11:04:30;;;;;;;19.77;2.65;;;4.10;95.10;;;;;;4984835;28;20042;-64
2022/01/06 11:06:56;;;;;;;20.83;2.33;;;4.20;95.20;;;;;;4985931;28;20135;-63
2022/01/06 11:09:22;;;;;;;21.25;2.60;;;4.20;95.00;;;;;;4983036;28;20421;-63
2022/01/06 11:14:29;;;;;;;24.67;2.67;;;4.40;95.10;;;;;;4984307;28;20042;-63
2022/01/06 11:16:56;;;;;;;24.30;3.05;;;4.40;95.10;;;;;;4975048;28;20049;-63
2022/01/06 11:19:23;;;;;;;25.52;2.97;;;4.40;95.00;;;;;;4989589;28;20445;-63
2022/01/06 11:21:50;;;;;;;24.42;3.50;;;4.50;94.70;;;;;;4984298;28;20571;-63
2022/01/06 11:24:25;;;;;;;36.08;3.95;;;4.50;94.30;;;;;;4986054;28;20046;-63
2022/01/06 11:27:00;;;;;;;23.67;3.45;;;4.60;94.00;;;;;;4984760;28;20531;-63
2022/01/06 11:29:28;;;;;;;27.77;3.60;;;4.60;94.10;;;;;;4986058;28;20550;-63
2022/01/06 11:31:54;;;;;;;19.95;3.58;;;4.70;94.30;;;;;;4984868;28;20058;-63
2022/01/06 11:34:20;;;;;;;29.85;3.85;;;4.70;94.00;;;;;;4965690;28;20065;-63
2022/01/06 11:36:50;;;;;;;41.53;3.65;;;4.70;94.00;;;;;;4985472;28;20050;-63
2022/01/06 11:39:26;;;;;;;31.02;3.92;;;4.80;93.70;;;;;;4984969;28;20078;-63
2022/01/06 11:41:53;;;;;;;35.63;3.60;;;4.90;93.90;;;;;;4968694;28;20042;-63
2022/01/06 11:44:24;;;;;;;26.60;3.88;;;4.90;93.90;;;;;;4983756;28;20100;-63
2022/01/06 11:46:56;;;;;;;34.85;3.50;;;5.00;93.60;;;;;;4986038;28;20046;-63
2022/01/06 11:49:36;;;;;;;18.10;2.97;;;5.00;94.00;;;;;;4981766;28;20415;-63
2022/01/06 11:52:14;;;;;;;23.98;3.55;;;5.00;93.50;;;;;;4998911;28;20038;-64
2022/01/06 11:55:14;;;;;;;30.88;4.25;;;5.10;93.90;;;;;;5000106;28;20041;-64
2022/01/06 11:57:40;;;;;;;31.90;3.55;;;5.10;93.50;;;;;;4987143;28;20046;-64
2022/01/06 12:00:22;;;;;;;30.30;3.25;;;5.20;93.40;;;;;;4992543;28;20121;-64
2022/01/06 12:03:00;;;;;;;32.97;4.22;;;5.20;93.10;;;;;;4985259;28;20416;-64
2022/01/06 12:05:27;;;;;;;28.92;4.97;;;5.30;93.30;;;;;;4986358;28;20072;-64
2022/01/06 12:07:54;;;;;;;31.13;5.47;;;5.30;93.20;;;;;;4986360;28;20497;-64
2022/01/06 12:10:21;;;;;;;25.23;3.53;;;5.40;93.90;;;;;;4985085;28;20361;-63
2022/01/06 12:12:50;;;;;;;37.92;4.55;;;5.40;93.90;;;;;;4983467;28;20041;-64
2022/01/06 12:15:19;;;;;;;29.20;3.70;;;5.50;94.10;;;;;;4985095;28;20071;-64
2022/01/06 12:17:47;;;;;;;16.60;3.17;;;5.50;94.00;;;;;;4983920;28;20046;-64
2022/01/06 12:20:27;;;;;;;32.28;3.08;;;5.60;92.90;;;;;;4969202;28;20053;-64
2022/01/06 12:22:54;;;;;;;24.10;3.33;;;5.60;91.10;;;;;;4950995;28;20042;-64
2022/01/06 12:25:25;;;;;;;28.90;4.78;;;5.60;90.70;;;;;;4990269;28;20046;-64
2022/01/06 12:27:56;;;;;;;35.33;3.42;;;5.60;90.80;;;;;;4981845;28;20118;-63
2022/01/06 12:30:25;;;;;;;30.55;3.25;;;5.60;91.10;;;;;;4969557;28;20058;-63
2022/01/06 12:33:00;;;;;;;23.80;4.15;;;5.70;90.80;;;;;;4994422;28;20054;-63
2022/01/06 12:35:45;;;;;;;23.75;3.60;;;5.70;91.10;;;;;;4984573;28;20058;-64
2022/01/06 12:38:12;;;;;;;27.95;3.28;;;5.80;90.40;;;;;;4989235;28;20084;-63
2022/01/06 12:40:43;;;;;;;18.60;2.78;;;5.80;90.60;;;;;;4988710;28;20505;-63
2022/01/06 12:43:16;;;;;;;28.98;3.25;;;5.80;89.20;;;;;;4998905;28;20050;-63
2022/01/06 12:45:43;;;;;;;18.77;3.60;;;5.90;90.20;;;;;;4989740;28;20052;-63
2022/01/06 12:48:11;;;;;;;24.08;2.92;;;5.90;89.30;;;;;;5002464;28;20461;-63
2022/01/06 12:50:44;;;;;;;22.90;3.15;;;5.90;88.90;;;;;;4971629;28;20073;-63
2022/01/06 12:53:10;;;;;;;30.80;3.92;;;6.00;88.80;;;;;;4987897;28;20117;-64
2022/01/06 12:55:43;;;;;;;30.08;3.55;;;6.00;89.10;;;;;;4987041;28;20622;-63
2022/01/06 12:58:09;;;;;;;26.40;3.28;;;6.00;89.00;;;;;;4988664;28;20057;-63
2022/01/06 13:00:35;;;;;;;30.02;3.53;;;6.10;89.00;;;;;;4997544;28;20421;-63
2022/01/06 13:03:05;;;;;;;29.15;4.05;;;6.10;89.80;;;;;;4998173;28;20444;-63